Sultan, WA (98294)

11:17 AM PDT on April 19, 2015 (GMT -0700)
Gold Bar | | Change Station
CLOSE
Current Station
Personal Weather Station
Location: Gold Bar, WA
Elevation: 184 ft
Nearby Weather Stations

Elev 184 ft 47.86 °N, 121.69 °W | Updated 13 minutes ago

Partly Cloudy
Partly Cloudy
72.1 °F
Feels Like 77 °F
N
2.7
Wind Variable Wind from NNE

Today
High -- | Low -- °F
--% Chance of Precip.
Yesterday
High -- | Low -- °F
Precip. -- in
6:10 AM 8:02 PM
New Moon, 1% visible
Pressure 30.20 in
Visibility 10.0 miles
Clouds Clear
Heat Index 77 °F
Dew Point 50 °F
Humidity 45%
Rainfall 0.00 in
Snow Depth Not available.
UV 6 out of 12
Pollen 10.70 out of 12
Air Quality Not available.
Flu Activity Regional
METAR KPAE 191753Z VRB05KT 10SM CLR 13/07 A3019 RMK AO2 SLP225 T01280072 10128 20067 58009

More Conditions Fewer Conditions

Pressure 30.20 in
Visibility 10.0 miles
Clouds Clear
Heat Index 77 °F
Dew Point 50 °F
Humidity 45%
Rainfall 0.00 in
Snow Depth Not available.
UV 6 out of 12
Pollen 10.70 out of 12
Air Quality Not available.
Flu Activity Regional
METAR KPAE 191753Z VRB05KT 10SM CLR 13/07 A3019 RMK AO2 SLP225 T01280072 10128 20067 58009

More Conditions Fewer Conditions

10-Day Weather Forecast

Almanac

Astronomy

Apr. 19, 2015 Rise Set
Actual Time
Civil Twilight
Nautical Twilight
Astronomical Twilight
Moon
Length of Visible Light
Length of Day
Tomorrow will be .
, % of the Moon is Illuminated

Today's Extremes

State Highs State Lows

Community

WunderPhotos

Upload Photos

1,814,894 photos uploaded!

WunderBlogs® & News

Nearby

Air Quality

  Air Quality AQ Index Pollutant
Not available.

Snow Depth

Station Depth Elevation

Earthquake Activity

City Distance Mag. Time & Date
Minimum magnitude displayed is 2.5.

Coastal Water Temperatures

Place Temperature

Stations

Nearby Weather Stations

Station Location Temp. Windchill Dew Point Humidity Wind Precip. Elev Updated Type